sensor_id;sensor_type;location;lat;lon;timestamp;P1;durP1;ratioP1;P2;durP2;ratioP2
38811;SDS011;24553;51.640;-0.752;2023-01-19T00:00:58;0.70;;;0.13;;
38811;SDS011;24553;51.640;-0.752;2023-01-19T00:03:23;1.05;;;0.13;;
38811;SDS011;24553;51.640;-0.752;2023-01-19T00:05:49;0.40;;;0.40;;
38811;SDS011;24553;51.640;-0.752;2023-01-19T00:08:14;2.78;;;0.03;;
38811;SDS011;24553;51.640;-0.752;2023-01-19T00:10:43;0.93;;;0.10;;
38811;SDS011;24553;51.640;-0.752;2023-01-19T00:13:11;4.22;;;0.20;;
38811;SDS011;24553;51.640;-0.752;2023-01-19T00:15:37;0.32;;;0.22;;
38811;SDS011;24553;51.640;-0.752;2023-01-19T00:18:02;1.20;;;0.50;;
38811;SDS011;24553;51.640;-0.752;2023-01-19T00:20:28;1.70;;;0.28;;
38811;SDS011;24553;51.640;-0.752;2023-01-19T00:22:55;1.35;;;0.20;;
38811;SDS011;24553;51.640;-0.752;2023-01-19T00:25:21;0.20;;;0.05;;
38811;SDS011;24553;51.640;-0.752;2023-01-19T00:27:46;0.43;;;0.05;;
38811;SDS011;24553;51.640;-0.752;2023-01-19T00:30:13;0.45;;;0.03;;
38811;SDS011;24553;51.640;-0.752;2023-01-19T00:32:40;2.22;;;0.25;;
38811;SDS011;24553;51.640;-0.752;2023-01-19T00:35:05;0.68;;;0.63;;
38811;SDS011;24553;51.640;-0.752;2023-01-19T00:37:31;1.05;;;0.43;;
38811;SDS011;24553;51.640;-0.752;2023-01-19T00:39:56;2.80;;;0.40;;
38811;SDS011;24553;51.640;-0.752;2023-01-19T00:42:21;1.15;;;0.20;;
38811;SDS011;24553;51.640;-0.752;2023-01-19T00:47:39;3.50;;;0.10;;
38811;SDS011;24553;51.640;-0.752;2023-01-19T00:50:05;0.13;;;0.00;;
38811;SDS011;24553;51.640;-0.752;2023-01-19T00:52:32;1.70;;;0.68;;
38811;SDS011;24553;51.640;-0.752;2023-01-19T00:54:58;6.47;;;0.22;;
38811;SDS011;24553;51.640;-0.752;2023-01-19T00:57:23;0.63;;;0.08;;
38811;SDS011;24553;51.640;-0.752;2023-01-19T00:59:49;0.10;;;0.10;;
38811;SDS011;24553;51.640;-0.752;2023-01-19T01:02:14;0.08;;;0.00;;
38811;SDS011;24553;51.640;-0.752;2023-01-19T01:04:39;7.93;;;0.15;;
38811;SDS011;24553;51.640;-0.752;2023-01-19T01:07:05;0.20;;;0.00;;
38811;SDS011;24553;51.640;-0.752;2023-01-19T01:09:30;2.60;;;0.20;;
38811;SDS011;24553;51.640;-0.752;2023-01-19T01:11:56;3.13;;;1.75;;
38811;SDS011;24553;51.640;-0.752;2023-01-19T01:14:22;0.82;;;0.13;;
38811;SDS011;24553;51.640;-0.752;2023-01-19T01:16:48;0.17;;;0.00;;
38811;SDS011;24553;51.640;-0.752;2023-01-19T01:19:14;0.43;;;0.17;;
38811;SDS011;24553;51.640;-0.752;2023-01-19T01:21:40;0.20;;;0.20;;
38811;SDS011;24553;51.640;-0.752;2023-01-19T01:24:05;0.30;;;0.10;;
38811;SDS011;24553;51.640;-0.752;2023-01-19T01:26:31;2.05;;;0.75;;
38811;SDS011;24553;51.640;-0.752;2023-01-19T01:28:57;2.13;;;0.30;;
38811;SDS011;24553;51.640;-0.752;2023-01-19T01:31:22;2.20;;;0.30;;
38811;SDS011;24553;51.640;-0.752;2023-01-19T01:33:47;0.50;;;0.20;;
38811;SDS011;24553;51.640;-0.752;2023-01-19T01:36:13;1.60;;;0.08;;
38811;SDS011;24553;51.640;-0.752;2023-01-19T01:38:41;3.97;;;1.02;;
38811;SDS011;24553;51.640;-0.752;2023-01-19T01:41:06;3.85;;;0.00;;
38811;SDS011;24553;51.640;-0.752;2023-01-19T01:43:43;2.38;;;0.10;;
38811;SDS011;24553;51.640;-0.752;2023-01-19T01:46:22;2.45;;;0.52;;
38811;SDS011;24553;51.640;-0.752;2023-01-19T01:48:54;0.55;;;0.10;;
38811;SDS011;24553;51.640;-0.752;2023-01-19T01:51:32;0.35;;;0.00;;
38811;SDS011;24553;51.640;-0.752;2023-01-19T01:56:38;2.03;;;0.20;;
38811;SDS011;24553;51.640;-0.752;2023-01-19T01:59:07;0.98;;;0.47;;
38811;SDS011;24553;51.640;-0.752;2023-01-19T02:01:36;0.20;;;0.10;;
38811;SDS011;24553;51.640;-0.752;2023-01-19T02:04:20;0.10;;;0.10;;
38811;SDS011;24553;51.640;-0.752;2023-01-19T02:06:46;0.38;;;0.10;;
38811;SDS011;24553;51.640;-0.752;2023-01-19T02:09:31;1.00;;;0.13;;
38811;SDS011;24553;51.640;-0.752;2023-01-19T02:12:18;0.93;;;0.08;;
38811;SDS011;24553;51.640;-0.752;2023-01-19T02:15:03;0.20;;;0.10;;
38811;SDS011;24553;51.640;-0.752;2023-01-19T02:17:28;3.17;;;0.20;;
38811;SDS011;24553;51.640;-0.752;2023-01-19T02:19:54;1.90;;;0.20;;
38811;SDS011;24553;51.640;-0.752;2023-01-19T02:22:23;2.58;;;0.32;;
38811;SDS011;24553;51.640;-0.752;2023-01-19T02:24:59;0.35;;;0.10;;
38811;SDS011;24553;51.640;-0.752;2023-01-19T02:27:25;0.17;;;0.10;;
38811;SDS011;24553;51.640;-0.752;2023-01-19T02:29:50;0.10;;;0.05;;
38811;SDS011;24553;51.640;-0.752;2023-01-19T02:32:16;0.70;;;0.10;;
38811;SDS011;24553;51.640;-0.752;2023-01-19T02:34:41;3.58;;;1.25;;
38811;SDS011;24553;51.640;-0.752;2023-01-19T02:37:11;2.50;;;0.55;;
38811;SDS011;24553;51.640;-0.752;2023-01-19T02:42:11;1.25;;;0.28;;
38811;SDS011;24553;51.640;-0.752;2023-01-19T02:44:40;0.30;;;0.10;;
38811;SDS011;24553;51.640;-0.752;2023-01-19T02:47:09;0.50;;;0.30;;
38811;SDS011;24553;51.640;-0.752;2023-01-19T02:49:35;2.15;;;0.10;;
38811;SDS011;24553;51.640;-0.752;2023-01-19T02:52:01;0.30;;;0.20;;
38811;SDS011;24553;51.640;-0.752;2023-01-19T03:12:43;1.95;;;0.10;;
38811;SDS011;24553;51.640;-0.752;2023-01-19T03:15:16;0.60;;;0.28;;
38811;SDS011;24553;51.640;-0.752;2023-01-19T03:17:47;1.27;;;0.32;;
38811;SDS011;24553;51.640;-0.752;2023-01-19T03:20:16;2.58;;;0.25;;
38811;SDS011;24553;51.640;-0.752;2023-01-19T03:22:46;2.05;;;0.68;;
38811;SDS011;24553;51.640;-0.752;2023-01-19T03:25:15;4.88;;;0.30;;
38811;SDS011;24553;51.640;-0.752;2023-01-19T03:27:43;3.85;;;0.82;;
38811;SDS011;24553;51.640;-0.752;2023-01-19T03:30:21;0.38;;;0.17;;
38811;SDS011;24553;51.640;-0.752;2023-01-19T03:32:51;2.47;;;0.60;;
38811;SDS011;24553;51.640;-0.752;2023-01-19T03:35:25;0.85;;;0.30;;
38811;SDS011;24553;51.640;-0.752;2023-01-19T03:37:55;0.57;;;0.32;;
38811;SDS011;24553;51.640;-0.752;2023-01-19T03:40:25;1.48;;;0.20;;
38811;SDS011;24553;51.640;-0.752;2023-01-19T03:42:53;2.83;;;0.55;;
38811;SDS011;24553;51.640;-0.752;2023-01-19T03:45:19;5.20;;;0.50;;
38811;SDS011;24553;51.640;-0.752;2023-01-19T03:47:46;2.53;;;0.82;;
38811;SDS011;24553;51.640;-0.752;2023-01-19T03:50:13;2.90;;;1.30;;
38811;SDS011;24553;51.640;-0.752;2023-01-19T03:52:58;2.83;;;0.20;;
38811;SDS011;24553;51.640;-0.752;2023-01-19T03:55:36;1.73;;;0.28;;
38811;SDS011;24553;51.640;-0.752;2023-01-19T03:58:02;0.52;;;0.43;;
38811;SDS011;24553;51.640;-0.752;2023-01-19T04:00:28;2.72;;;0.10;;
38811;SDS011;24553;51.640;-0.752;2023-01-19T04:02:53;0.80;;;0.35;;
38811;SDS011;24553;51.640;-0.752;2023-01-19T04:05:19;0.38;;;0.38;;
38811;SDS011;24553;51.640;-0.752;2023-01-19T04:07:49;1.30;;;0.15;;
38811;SDS011;24553;51.640;-0.752;2023-01-19T04:10:18;2.25;;;0.35;;
38811;SDS011;24553;51.640;-0.752;2023-01-19T04:12:44;0.90;;;0.30;;
38811;SDS011;24553;51.640;-0.752;2023-01-19T04:15:10;0.43;;;0.08;;
38811;SDS011;24553;51.640;-0.752;2023-01-19T04:17:35;0.70;;;0.20;;
38811;SDS011;24553;51.640;-0.752;2023-01-19T04:20:02;4.05;;;0.30;;
38811;SDS011;24553;51.640;-0.752;2023-01-19T04:22:28;1.38;;;0.30;;
38811;SDS011;24553;51.640;-0.752;2023-01-19T04:24:54;0.40;;;0.10;;
38811;SDS011;24553;51.640;-0.752;2023-01-19T04:27:19;0.40;;;0.00;;
38811;SDS011;24553;51.640;-0.752;2023-01-19T04:29:45;0.20;;;0.20;;
38811;SDS011;24553;51.640;-0.752;2023-01-19T04:32:11;5.32;;;1.25;;
38811;SDS011;24553;51.640;-0.752;2023-01-19T04:34:37;0.85;;;0.25;;
38811;SDS011;24553;51.640;-0.752;2023-01-19T04:37:03;0.93;;;0.50;;
38811;SDS011;24553;51.640;-0.752;2023-01-19T04:39:28;2.33;;;0.10;;
38811;SDS011;24553;51.640;-0.752;2023-01-19T04:41:54;0.57;;;0.17;;
38811;SDS011;24553;51.640;-0.752;2023-01-19T04:44:21;3.67;;;0.38;;
38811;SDS011;24553;51.640;-0.752;2023-01-19T04:46:46;2.08;;;0.25;;
38811;SDS011;24553;51.640;-0.752;2023-01-19T04:49:12;8.43;;;0.30;;
38811;SDS011;24553;51.640;-0.752;2023-01-19T04:51:37;0.95;;;0.15;;
38811;SDS011;24553;51.640;-0.752;2023-01-19T04:54:03;0.38;;;0.25;;
38811;SDS011;24553;51.640;-0.752;2023-01-19T04:56:28;9.45;;;0.50;;
38811;SDS011;24553;51.640;-0.752;2023-01-19T04:58:53;1.02;;;0.32;;
38811;SDS011;24553;51.640;-0.752;2023-01-19T05:01:19;3.42;;;0.22;;
38811;SDS011;24553;51.640;-0.752;2023-01-19T05:03:45;1.40;;;0.47;;
38811;SDS011;24553;51.640;-0.752;2023-01-19T05:06:10;0.75;;;0.20;;
38811;SDS011;24553;51.640;-0.752;2023-01-19T05:08:36;7.43;;;0.38;;
38811;SDS011;24553;51.640;-0.752;2023-01-19T05:11:03;1.25;;;0.00;;
38811;SDS011;24553;51.640;-0.752;2023-01-19T05:13:28;2.38;;;0.98;;
38811;SDS011;24553;51.640;-0.752;2023-01-19T05:15:54;0.40;;;0.25;;
38811;SDS011;24553;51.640;-0.752;2023-01-19T05:18:19;0.20;;;0.20;;
38811;SDS011;24553;51.640;-0.752;2023-01-19T05:20:44;0.43;;;0.10;;
38811;SDS011;24553;51.640;-0.752;2023-01-19T05:23:10;2.08;;;0.40;;
38811;SDS011;24553;51.640;-0.752;2023-01-19T05:25:35;2.63;;;0.05;;
38811;SDS011;24553;51.640;-0.752;2023-01-19T05:28:01;3.95;;;0.22;;
38811;SDS011;24553;51.640;-0.752;2023-01-19T05:30:27;1.38;;;0.38;;
38811;SDS011;24553;51.640;-0.752;2023-01-19T05:32:52;1.77;;;0.10;;
38811;SDS011;24553;51.640;-0.752;2023-01-19T05:35:17;0.95;;;0.10;;
38811;SDS011;24553;51.640;-0.752;2023-01-19T05:37:43;3.70;;;0.22;;
38811;SDS011;24553;51.640;-0.752;2023-01-19T05:40:08;2.85;;;0.20;;
38811;SDS011;24553;51.640;-0.752;2023-01-19T05:42:35;1.45;;;0.20;;
38811;SDS011;24553;51.640;-0.752;2023-01-19T05:45:01;0.63;;;0.32;;
38811;SDS011;24553;51.640;-0.752;2023-01-19T05:47:29;1.02;;;0.17;;
38811;SDS011;24553;51.640;-0.752;2023-01-19T05:49:54;1.65;;;0.20;;
38811;SDS011;24553;51.640;-0.752;2023-01-19T05:52:20;0.43;;;0.15;;
38811;SDS011;24553;51.640;-0.752;2023-01-19T05:54:46;0.20;;;0.10;;
38811;SDS011;24553;51.640;-0.752;2023-01-19T05:57:12;3.15;;;0.30;;
38811;SDS011;24553;51.640;-0.752;2023-01-19T05:59:38;2.00;;;0.20;;
38811;SDS011;24553;51.640;-0.752;2023-01-19T06:02:04;5.10;;;0.32;;
38811;SDS011;24553;51.640;-0.752;2023-01-19T06:04:29;1.23;;;0.47;;
38811;SDS011;24553;51.640;-0.752;2023-01-19T06:06:54;0.52;;;0.20;;
38811;SDS011;24553;51.640;-0.752;2023-01-19T06:09:20;0.82;;;0.10;;
38811;SDS011;24553;51.640;-0.752;2023-01-19T06:11:45;4.13;;;0.20;;
38811;SDS011;24553;51.640;-0.752;2023-01-19T06:14:11;3.08;;;0.40;;
38811;SDS011;24553;51.640;-0.752;2023-01-19T06:16:36;0.10;;;0.00;;
38811;SDS011;24553;51.640;-0.752;2023-01-19T06:19:02;0.30;;;0.30;;
38811;SDS011;24553;51.640;-0.752;2023-01-19T06:21:27;3.40;;;0.70;;
38811;SDS011;24553;51.640;-0.752;2023-01-19T06:23:53;0.95;;;0.10;;
38811;SDS011;24553;51.640;-0.752;2023-01-19T06:26:18;0.90;;;0.10;;
38811;SDS011;24553;51.640;-0.752;2023-01-19T06:28:43;0.73;;;0.20;;
38811;SDS011;24553;51.640;-0.752;2023-01-19T06:31:09;1.60;;;0.15;;
38811;SDS011;24553;51.640;-0.752;2023-01-19T06:33:34;0.28;;;0.20;;
38811;SDS011;24553;51.640;-0.752;2023-01-19T06:35:59;2.10;;;0.15;;
38811;SDS011;24553;51.640;-0.752;2023-01-19T06:38:25;3.83;;;0.40;;
38811;SDS011;24553;51.640;-0.752;2023-01-19T06:40:51;0.77;;;0.15;;
38811;SDS011;24553;51.640;-0.752;2023-01-19T06:43:18;0.68;;;0.35;;
38811;SDS011;24553;51.640;-0.752;2023-01-19T06:45:44;4.13;;;0.43;;
38811;SDS011;24553;51.640;-0.752;2023-01-19T06:48:10;0.20;;;0.10;;
38811;SDS011;24553;51.640;-0.752;2023-01-19T06:50:35;0.57;;;0.40;;
38811;SDS011;24553;51.640;-0.752;2023-01-19T06:53:00;1.27;;;0.20;;
38811;SDS011;24553;51.640;-0.752;2023-01-19T06:55:26;1.92;;;0.40;;
38811;SDS011;24553;51.640;-0.752;2023-01-19T06:57:57;1.45;;;0.22;;
38811;SDS011;24553;51.640;-0.752;2023-01-19T07:00:24;0.65;;;0.15;;
38811;SDS011;24553;51.640;-0.752;2023-01-19T07:02:50;8.23;;;0.85;;
38811;SDS011;24553;51.640;-0.752;2023-01-19T07:05:16;1.02;;;0.28;;
38811;SDS011;24553;51.640;-0.752;2023-01-19T07:07:41;0.93;;;0.22;;
38811;SDS011;24553;51.640;-0.752;2023-01-19T07:10:09;1.25;;;0.20;;
38811;SDS011;24553;51.640;-0.752;2023-01-19T07:12:36;1.15;;;0.20;;
38811;SDS011;24553;51.640;-0.752;2023-01-19T07:15:01;0.95;;;0.80;;
38811;SDS011;24553;51.640;-0.752;2023-01-19T07:17:27;2.05;;;0.57;;
38811;SDS011;24553;51.640;-0.752;2023-01-19T07:19:52;2.30;;;0.70;;
38811;SDS011;24553;51.640;-0.752;2023-01-19T07:22:17;2.25;;;0.20;;
38811;SDS011;24553;51.640;-0.752;2023-01-19T07:24:43;1.85;;;0.63;;
38811;SDS011;24553;51.640;-0.752;2023-01-19T07:27:08;0.77;;;0.17;;
38811;SDS011;24553;51.640;-0.752;2023-01-19T07:29:35;1.75;;;0.17;;
38811;SDS011;24553;51.640;-0.752;2023-01-19T07:32:01;1.80;;;0.30;;
38811;SDS011;24553;51.640;-0.752;2023-01-19T07:34:26;0.47;;;0.32;;
38811;SDS011;24553;51.640;-0.752;2023-01-19T07:36:51;1.42;;;0.68;;
38811;SDS011;24553;51.640;-0.752;2023-01-19T07:39:17;2.30;;;0.28;;
38811;SDS011;24553;51.640;-0.752;2023-01-19T07:41:42;2.17;;;0.30;;
38811;SDS011;24553;51.640;-0.752;2023-01-19T07:44:07;3.78;;;0.50;;
38811;SDS011;24553;51.640;-0.752;2023-01-19T07:46:33;5.75;;;0.70;;
38811;SDS011;24553;51.640;-0.752;2023-01-19T07:48:58;0.90;;;0.22;;
38811;SDS011;24553;51.640;-0.752;2023-01-19T07:51:24;0.95;;;0.20;;
38811;SDS011;24553;51.640;-0.752;2023-01-19T07:53:49;2.97;;;1.10;;
38811;SDS011;24553;51.640;-0.752;2023-01-19T07:56:15;1.02;;;0.28;;
38811;SDS011;24553;51.640;-0.752;2023-01-19T07:58:41;6.25;;;1.85;;
38811;SDS011;24553;51.640;-0.752;2023-01-19T08:01:07;1.08;;;0.47;;
38811;SDS011;24553;51.640;-0.752;2023-01-19T08:03:34;4.10;;;0.35;;
38811;SDS011;24553;51.640;-0.752;2023-01-19T08:05:59;1.73;;;0.80;;
38811;SDS011;24553;51.640;-0.752;2023-01-19T08:08:27;2.20;;;0.65;;
38811;SDS011;24553;51.640;-0.752;2023-01-19T08:10:53;1.10;;;0.65;;
38811;SDS011;24553;51.640;-0.752;2023-01-19T08:13:18;1.00;;;0.20;;
38811;SDS011;24553;51.640;-0.752;2023-01-19T08:15:44;1.10;;;0.30;;
38811;SDS011;24553;51.640;-0.752;2023-01-19T08:18:12;1.75;;;0.40;;
38811;SDS011;24553;51.640;-0.752;2023-01-19T08:20:39;1.55;;;0.45;;
38811;SDS011;24553;51.640;-0.752;2023-01-19T08:23:05;4.00;;;0.68;;
38811;SDS011;24553;51.640;-0.752;2023-01-19T08:27:59;8.82;;;1.27;;
38811;SDS011;24553;51.640;-0.752;2023-01-19T08:30:25;1.58;;;1.00;;
38811;SDS011;24553;51.640;-0.752;2023-01-19T08:32:51;6.57;;;1.13;;
38811;SDS011;24553;51.640;-0.752;2023-01-19T08:35:27;3.97;;;0.45;;
38811;SDS011;24553;51.640;-0.752;2023-01-19T08:38:04;4.75;;;1.17;;
38811;SDS011;24553;51.640;-0.752;2023-01-19T08:40:30;4.22;;;1.30;;
38811;SDS011;24553;51.640;-0.752;2023-01-19T08:43:00;1.50;;;1.02;;
38811;SDS011;24553;51.640;-0.752;2023-01-19T08:45:28;9.40;;;1.13;;
38811;SDS011;24553;51.640;-0.752;2023-01-19T08:47:55;9.38;;;1.00;;
38811;SDS011;24553;51.640;-0.752;2023-01-19T08:50:23;4.75;;;1.27;;
38811;SDS011;24553;51.640;-0.752;2023-01-19T08:52:56;5.93;;;1.98;;
38811;SDS011;24553;51.640;-0.752;2023-01-19T08:55:23;3.72;;;1.15;;
38811;SDS011;24553;51.640;-0.752;2023-01-19T08:57:51;4.57;;;1.65;;
38811;SDS011;24553;51.640;-0.752;2023-01-19T09:00:18;10.85;;;1.35;;
38811;SDS011;24553;51.640;-0.752;2023-01-19T09:02:44;11.18;;;1.77;;
38811;SDS011;24553;51.640;-0.752;2023-01-19T09:05:09;9.75;;;1.63;;
38811;SDS011;24553;51.640;-0.752;2023-01-19T09:07:35;5.35;;;1.02;;
38811;SDS011;24553;51.640;-0.752;2023-01-19T09:10:01;6.05;;;1.48;;
38811;SDS011;24553;51.640;-0.752;2023-01-19T09:12:27;2.22;;;1.17;;
38811;SDS011;24553;51.640;-0.752;2023-01-19T09:14:53;7.30;;;1.45;;
38811;SDS011;24553;51.640;-0.752;2023-01-19T09:17:18;10.80;;;2.40;;
38811;SDS011;24553;51.640;-0.752;2023-01-19T09:19:43;19.02;;;2.80;;
38811;SDS011;24553;51.640;-0.752;2023-01-19T09:22:09;7.93;;;2.58;;
38811;SDS011;24553;51.640;-0.752;2023-01-19T09:24:34;8.80;;;1.50;;
38811;SDS011;24553;51.640;-0.752;2023-01-19T09:27:00;10.88;;;3.15;;
38811;SDS011;24553;51.640;-0.752;2023-01-19T09:29:26;11.60;;;3.67;;
38811;SDS011;24553;51.640;-0.752;2023-01-19T09:31:51;12.90;;;4.57;;
38811;SDS011;24553;51.640;-0.752;2023-01-19T09:34:17;13.48;;;4.43;;
38811;SDS011;24553;51.640;-0.752;2023-01-19T09:36:42;6.03;;;2.88;;
38811;SDS011;24553;51.640;-0.752;2023-01-19T09:39:08;5.53;;;3.28;;
38811;SDS011;24553;51.640;-0.752;2023-01-19T09:41:35;8.65;;;3.30;;
38811;SDS011;24553;51.640;-0.752;2023-01-19T09:44:02;7.20;;;2.63;;
38811;SDS011;24553;51.640;-0.752;2023-01-19T09:48:57;4.95;;;2.05;;
38811;SDS011;24553;51.640;-0.752;2023-01-19T09:51:31;6.70;;;2.15;;
38811;SDS011;24553;51.640;-0.752;2023-01-19T09:56:28;7.93;;;2.20;;
38811;SDS011;24553;51.640;-0.752;2023-01-19T09:58:55;14.45;;;3.47;;
38811;SDS011;24553;51.640;-0.752;2023-01-19T10:01:28;13.65;;;3.92;;
38811;SDS011;24553;51.640;-0.752;2023-01-19T10:09:34;18.33;;;7.32;;
38811;SDS011;24553;51.640;-0.752;2023-01-19T10:12:13;19.13;;;6.13;;
38811;SDS011;24553;51.640;-0.752;2023-01-19T10:20:27;10.85;;;3.72;;
38811;SDS011;24553;51.640;-0.752;2023-01-19T10:25:23;6.38;;;2.72;;
38811;SDS011;24553;51.640;-0.752;2023-01-19T10:27:49;9.68;;;3.72;;
38811;SDS011;24553;51.640;-0.752;2023-01-19T10:30:19;11.93;;;4.30;;
38811;SDS011;24553;51.640;-0.752;2023-01-19T10:32:48;20.60;;;9.65;;
38811;SDS011;24553;51.640;-0.752;2023-01-19T10:35:15;14.30;;;5.90;;
38811;SDS011;24553;51.640;-0.752;2023-01-19T10:37:47;16.33;;;5.90;;
38811;SDS011;24553;51.640;-0.752;2023-01-19T10:46:07;10.80;;;3.42;;
38811;SDS011;24553;51.640;-0.752;2023-01-19T10:48:41;10.75;;;4.38;;
38811;SDS011;24553;51.640;-0.752;2023-01-19T10:51:08;10.65;;;5.35;;
38811;SDS011;24553;51.640;-0.752;2023-01-19T10:53:34;7.78;;;2.83;;
38811;SDS011;24553;51.640;-0.752;2023-01-19T10:56:20;8.40;;;3.80;;
38811;SDS011;24553;51.640;-0.752;2023-01-19T10:58:48;3.60;;;2.22;;
38811;SDS011;24553;51.640;-0.752;2023-01-19T11:01:17;4.55;;;2.00;;
38811;SDS011;24553;51.640;-0.752;2023-01-19T11:03:44;7.15;;;4.00;;
38811;SDS011;24553;51.640;-0.752;2023-01-19T11:08:43;11.32;;;4.32;;
38811;SDS011;24553;51.640;-0.752;2023-01-19T11:11:10;8.75;;;3.30;;
38811;SDS011;24553;51.640;-0.752;2023-01-19T11:13:39;7.00;;;2.95;;
38811;SDS011;24553;51.640;-0.752;2023-01-19T11:16:17;3.90;;;2.03;;
38811;SDS011;24553;51.640;-0.752;2023-01-19T11:18:51;3.45;;;1.73;;
38811;SDS011;24553;51.640;-0.752;2023-01-19T11:21:21;9.23;;;2.45;;
38811;SDS011;24553;51.640;-0.752;2023-01-19T11:23:49;3.65;;;2.38;;
38811;SDS011;24553;51.640;-0.752;2023-01-19T11:29:03;4.57;;;2.63;;
38811;SDS011;24553;51.640;-0.752;2023-01-19T11:34:21;6.60;;;3.30;;
38811;SDS011;24553;51.640;-0.752;2023-01-19T11:37:07;5.32;;;2.10;;
38811;SDS011;24553;51.640;-0.752;2023-01-19T11:39:52;5.90;;;2.30;;
38811;SDS011;24553;51.640;-0.752;2023-01-19T11:42:19;5.32;;;2.17;;
38811;SDS011;24553;51.640;-0.752;2023-01-19T11:45:03;8.07;;;1.52;;
38811;SDS011;24553;51.640;-0.752;2023-01-19T11:47:36;3.80;;;0.65;;
38811;SDS011;24553;51.640;-0.752;2023-01-19T11:52:56;1.02;;;0.30;;
38811;SDS011;24553;51.640;-0.752;2023-01-19T11:55:46;4.32;;;0.52;;
38811;SDS011;24553;51.640;-0.752;2023-01-19T11:58:15;4.90;;;0.20;;
38811;SDS011;24553;51.640;-0.752;2023-01-19T12:00:43;1.30;;;0.47;;
38811;SDS011;24553;51.640;-0.752;2023-01-19T12:06:05;1.02;;;0.30;;
38811;SDS011;24553;51.640;-0.752;2023-01-19T12:08:42;0.20;;;0.10;;
38811;SDS011;24553;51.640;-0.752;2023-01-19T12:11:14;6.45;;;2.67;;
38811;SDS011;24553;51.640;-0.752;2023-01-19T12:13:44;0.20;;;0.10;;
38811;SDS011;24553;51.640;-0.752;2023-01-19T12:16:12;2.35;;;0.17;;
38811;SDS011;24553;51.640;-0.752;2023-01-19T12:18:45;1.75;;;0.03;;
38811;SDS011;24553;51.640;-0.752;2023-01-19T12:21:15;5.97;;;2.42;;
38811;SDS011;24553;51.640;-0.752;2023-01-19T12:26:19;2.40;;;0.17;;
38811;SDS011;24553;51.640;-0.752;2023-01-19T12:28:52;6.93;;;1.85;;
38811;SDS011;24553;51.640;-0.752;2023-01-19T12:31:21;1.25;;;0.25;;
38811;SDS011;24553;51.640;-0.752;2023-01-19T12:33:47;1.85;;;0.20;;
38811;SDS011;24553;51.640;-0.752;2023-01-19T12:38:42;2.30;;;0.70;;
38811;SDS011;24553;51.640;-0.752;2023-01-19T12:46:57;4.57;;;1.33;;
38811;SDS011;24553;51.640;-0.752;2023-01-19T12:54:42;11.93;;;1.25;;
38811;SDS011;24553;51.640;-0.752;2023-01-19T13:13:38;1.65;;;0.20;;
38811;SDS011;24553;51.640;-0.752;2023-01-19T13:21:12;2.80;;;0.15;;
38811;SDS011;24553;51.640;-0.752;2023-01-19T13:23:50;1.25;;;0.22;;
38811;SDS011;24553;51.640;-0.752;2023-01-19T13:26:22;3.75;;;0.63;;
38811;SDS011;24553;51.640;-0.752;2023-01-19T13:28:50;8.10;;;0.60;;
38811;SDS011;24553;51.640;-0.752;2023-01-19T13:31:19;0.47;;;0.25;;
38811;SDS011;24553;51.640;-0.752;2023-01-19T13:33:53;3.05;;;0.10;;
38811;SDS011;24553;51.640;-0.752;2023-01-19T13:36:30;3.40;;;0.70;;
38811;SDS011;24553;51.640;-0.752;2023-01-19T13:38:59;1.88;;;0.40;;
38811;SDS011;24553;51.640;-0.752;2023-01-19T13:41:29;5.22;;;0.40;;
38811;SDS011;24553;51.640;-0.752;2023-01-19T13:44:00;2.93;;;0.40;;
38811;SDS011;24553;51.640;-0.752;2023-01-19T13:46:29;1.00;;;0.30;;
38811;SDS011;24553;51.640;-0.752;2023-01-19T13:48:58;0.73;;;0.50;;
38811;SDS011;24553;51.640;-0.752;2023-01-19T13:51:27;4.30;;;0.77;;
38811;SDS011;24553;51.640;-0.752;2023-01-19T13:53:56;2.33;;;0.47;;
38811;SDS011;24553;51.640;-0.752;2023-01-19T13:56:27;4.55;;;0.20;;
38811;SDS011;24553;51.640;-0.752;2023-01-19T13:59:04;3.60;;;1.17;;
38811;SDS011;24553;51.640;-0.752;2023-01-19T14:01:35;2.55;;;1.30;;
38811;SDS011;24553;51.640;-0.752;2023-01-19T14:04:01;2.97;;;1.10;;
38811;SDS011;24553;51.640;-0.752;2023-01-19T14:06:31;5.32;;;0.93;;
38811;SDS011;24553;51.640;-0.752;2023-01-19T14:09:16;0.93;;;0.85;;
38811;SDS011;24553;51.640;-0.752;2023-01-19T14:11:47;2.15;;;0.68;;
38811;SDS011;24553;51.640;-0.752;2023-01-19T14:14:29;5.97;;;0.35;;
38811;SDS011;24553;51.640;-0.752;2023-01-19T14:16:55;4.72;;;2.25;;
38811;SDS011;24553;51.640;-0.752;2023-01-19T14:19:20;3.92;;;0.95;;
38811;SDS011;24553;51.640;-0.752;2023-01-19T14:21:56;0.65;;;0.47;;
38811;SDS011;24553;51.640;-0.752;2023-01-19T14:24:23;1.17;;;0.60;;
38811;SDS011;24553;51.640;-0.752;2023-01-19T14:26:49;1.55;;;0.50;;
38811;SDS011;24553;51.640;-0.752;2023-01-19T14:37:35;2.92;;;0.73;;
38811;SDS011;24553;51.640;-0.752;2023-01-19T14:45:15;7.68;;;2.38;;
38811;SDS011;24553;51.640;-0.752;2023-01-19T14:47:56;7.37;;;2.07;;
38811;SDS011;24553;51.640;-0.752;2023-01-19T14:50:25;5.97;;;0.95;;
38811;SDS011;24553;51.640;-0.752;2023-01-19T14:55:28;6.28;;;1.52;;
38811;SDS011;24553;51.640;-0.752;2023-01-19T14:57:59;3.25;;;1.58;;
38811;SDS011;24553;51.640;-0.752;2023-01-19T15:00:25;4.38;;;0.55;;
38811;SDS011;24553;51.640;-0.752;2023-01-19T15:02:51;7.05;;;2.00;;
38811;SDS011;24553;51.640;-0.752;2023-01-19T15:05:16;4.13;;;1.20;;
38811;SDS011;24553;51.640;-0.752;2023-01-19T15:07:42;5.45;;;1.05;;
38811;SDS011;24553;51.640;-0.752;2023-01-19T15:10:12;2.63;;;0.70;;
38811;SDS011;24553;51.640;-0.752;2023-01-19T15:12:45;4.07;;;2.15;;
38811;SDS011;24553;51.640;-0.752;2023-01-19T15:15:14;1.80;;;0.77;;
38811;SDS011;24553;51.640;-0.752;2023-01-19T15:20:12;5.13;;;0.80;;
38811;SDS011;24553;51.640;-0.752;2023-01-19T15:22:42;2.90;;;0.60;;
38811;SDS011;24553;51.640;-0.752;2023-01-19T15:25:11;3.45;;;0.70;;
38811;SDS011;24553;51.640;-0.752;2023-01-19T15:27:37;5.90;;;0.70;;
38811;SDS011;24553;51.640;-0.752;2023-01-19T15:30:04;3.25;;;1.48;;
38811;SDS011;24553;51.640;-0.752;2023-01-19T15:32:37;1.42;;;0.68;;
38811;SDS011;24553;51.640;-0.752;2023-01-19T15:35:11;1.23;;;0.83;;
38811;SDS011;24553;51.640;-0.752;2023-01-19T15:37:37;4.10;;;0.52;;
38811;SDS011;24553;51.640;-0.752;2023-01-19T15:40:03;1.55;;;0.75;;
38811;SDS011;24553;51.640;-0.752;2023-01-19T15:42:28;1.13;;;0.65;;
38811;SDS011;24553;51.640;-0.752;2023-01-19T15:44:54;2.63;;;1.08;;
38811;SDS011;24553;51.640;-0.752;2023-01-19T15:47:19;1.67;;;0.43;;
38811;SDS011;24553;51.640;-0.752;2023-01-19T15:49:44;3.13;;;1.05;;
38811;SDS011;24553;51.640;-0.752;2023-01-19T15:52:10;6.15;;;1.48;;
38811;SDS011;24553;51.640;-0.752;2023-01-19T15:54:35;4.50;;;1.15;;
38811;SDS011;24553;51.640;-0.752;2023-01-19T15:57:00;1.92;;;0.88;;
38811;SDS011;24553;51.640;-0.752;2023-01-19T15:59:26;4.18;;;1.30;;
38811;SDS011;24553;51.640;-0.752;2023-01-19T16:01:51;10.02;;;1.08;;
38811;SDS011;24553;51.640;-0.752;2023-01-19T16:04:16;3.95;;;0.50;;
38811;SDS011;24553;51.640;-0.752;2023-01-19T16:06:42;1.20;;;0.50;;
38811;SDS011;24553;51.640;-0.752;2023-01-19T16:09:07;5.60;;;1.05;;
38811;SDS011;24553;51.640;-0.752;2023-01-19T16:11:33;1.23;;;0.82;;
38811;SDS011;24553;51.640;-0.752;2023-01-19T16:13:59;2.42;;;0.63;;
38811;SDS011;24553;51.640;-0.752;2023-01-19T16:16:25;4.50;;;1.25;;
38811;SDS011;24553;51.640;-0.752;2023-01-19T16:18:52;2.38;;;0.65;;
38811;SDS011;24553;51.640;-0.752;2023-01-19T16:21:17;4.85;;;0.88;;
38811;SDS011;24553;51.640;-0.752;2023-01-19T16:23:43;6.53;;;0.95;;
38811;SDS011;24553;51.640;-0.752;2023-01-19T16:28:46;4.13;;;0.80;;
38811;SDS011;24553;51.640;-0.752;2023-01-19T16:31:11;2.20;;;1.05;;
38811;SDS011;24553;51.640;-0.752;2023-01-19T16:33:38;2.65;;;1.13;;
38811;SDS011;24553;51.640;-0.752;2023-01-19T16:36:23;1.13;;;0.63;;
38811;SDS011;24553;51.640;-0.752;2023-01-19T16:38:51;4.57;;;1.00;;
38811;SDS011;24553;51.640;-0.752;2023-01-19T16:41:17;3.78;;;0.82;;
38811;SDS011;24553;51.640;-0.752;2023-01-19T16:43:48;1.73;;;0.43;;